Time;durP1;ratioP1;P1;durP2;ratioP2;P2;SDS_P1;SDS_P2;PMS_P1;PMS_P2;Temp;Humidity;BMP_temperature;BMP_pressure;BME280_temperature;BME280_humidity;BME280_pressure;Samples;Min_cycle;Max_cycle;Signal;HPM_P1;HPM_P2
2022/12/19 00:02:21;;;;;;;19.70;9.10;;;-0.90;99.90;;;;;;10018988;28;20129;-65
2022/12/19 00:07:11;;;;;;;24.15;9.02;;;-0.90;99.90;;;;;;10020513;28;20026;-66
2022/12/19 00:12:02;;;;;;;24.48;9.07;;;-0.90;99.90;;;;;;10019232;28;20050;-66
2022/12/19 00:16:53;;;;;;;19.80;8.90;;;-0.90;99.90;;;;;;10013811;28;20049;-64
2022/12/19 00:21:43;;;;;;;27.13;9.57;;;-0.80;99.90;;;;;;10019260;28;20500;-65
2022/12/19 00:26:36;;;;;;;20.90;9.70;;;-0.80;99.90;;;;;;10018799;28;20041;-63
2022/12/19 00:31:28;;;;;;;22.48;9.43;;;-0.80;99.90;;;;;;10018971;28;20488;-65
2022/12/19 00:36:27;;;;;;;25.73;9.23;;;-0.80;99.90;;;;;;10018809;28;20061;-66
2022/12/19 00:41:30;;;;;;;22.90;10.48;;;-0.80;99.90;;;;;;10017718;28;20045;-66
2022/12/19 00:46:21;;;;;;;26.60;10.07;;;-0.70;99.90;;;;;;10018433;28;20022;-67
2022/12/19 00:51:15;;;;;;;27.08;10.18;;;-0.60;99.90;;;;;;10018295;28;20029;-65
2022/12/19 00:56:09;;;;;;;24.00;11.23;;;-0.50;99.90;;;;;;10018408;28;20113;-65
2022/12/19 01:01:06;;;;;;;24.83;9.77;;;-0.50;99.90;;;;;;10012478;28;20034;-66
2022/12/19 01:05:56;;;;;;;20.90;10.50;;;-0.40;99.90;;;;;;10016488;28;20022;-65
2022/12/19 01:10:48;;;;;;;19.30;7.88;;;-0.40;99.90;;;;;;10017722;28;20028;-67
2022/12/19 01:15:42;;;;;;;23.17;8.68;;;-0.30;99.90;;;;;;10010306;28;20544;-67
2022/12/19 01:20:33;;;;;;;17.67;8.32;;;-0.30;99.90;;;;;;10015539;28;20061;-67
2022/12/19 01:25:23;;;;;;;20.50;8.45;;;-0.40;99.90;;;;;;10008598;28;20524;-67
2022/12/19 01:30:14;;;;;;;24.48;9.05;;;-0.40;99.90;;;;;;10011962;28;20033;-66
2022/12/19 01:35:06;;;;;;;25.13;9.82;;;-0.40;99.90;;;;;;10012241;28;20520;-67
2022/12/19 01:39:56;;;;;;;20.90;7.93;;;-0.30;99.90;;;;;;10011917;28;20038;-65
2022/12/19 01:45:07;;;;;;;20.23;10.10;;;-0.50;99.90;;;;;;10016770;28;20045;-68
2022/12/19 01:49:58;;;;;;;24.08;9.98;;;-0.40;99.90;;;;;;10007263;28;20037;-67
2022/12/19 01:54:48;;;;;;;26.88;9.98;;;-0.30;99.90;;;;;;10013759;28;20049;-66
2022/12/19 01:59:51;;;;;;;22.55;9.48;;;-0.30;99.90;;;;;;10014995;28;20052;-67
2022/12/19 02:04:42;;;;;;;23.88;10.05;;;-0.30;99.90;;;;;;10007310;28;20022;-65
2022/12/19 02:09:34;;;;;;;19.92;9.15;;;-0.40;99.90;;;;;;10004804;28;20045;-68
2022/12/19 02:14:26;;;;;;;24.95;10.30;;;-0.30;99.90;;;;;;10010198;28;20068;-67
2022/12/19 02:19:16;;;;;;;27.08;9.05;;;-0.30;99.90;;;;;;10014529;28;20050;-68
2022/12/19 02:24:25;;;;;;;21.95;9.40;;;-0.30;99.90;;;;;;10009719;28;20029;-66
2022/12/19 02:29:42;;;;;;;28.90;9.85;;;-0.30;99.90;;;;;;10014622;28;20033;-67
2022/12/19 02:35:03;;;;;;;23.92;8.48;;;-0.20;99.90;;;;;;10015662;28;20093;-67
2022/12/19 02:40:20;;;;;;;25.85;9.90;;;-0.20;99.90;;;;;;10015613;28;20037;-67
2022/12/19 02:45:12;;;;;;;;;;;-0.20;99.90;;;;;;10010631;28;20026;-65
2022/12/19 02:50:04;;;;;;;21.98;9.02;;;-0.10;99.90;;;;;;10013690;28;19917;-65
2022/12/19 02:55:03;;;;;;;26.30;8.27;;;0.00;99.90;;;;;;10015151;28;20435;-64
2022/12/19 03:00:07;;;;;;;26.58;8.88;;;0.00;99.90;;;;;;10016085;28;20040;-63
2022/12/19 03:05:15;;;;;;;28.02;11.25;;;-0.20;99.90;;;;;;10018299;28;20044;-66
2022/12/19 03:10:22;;;;;;;21.63;9.43;;;0.00;99.90;;;;;;10018180;28;20025;-65
2022/12/19 03:15:12;;;;;;;;;;;0.10;99.90;;;;;;10021255;28;20115;-65
2022/12/19 03:20:44;;;;;;;24.55;7.57;;;0.20;99.90;;;;;;10011907;28;20004;-66
2022/12/19 03:25:35;;;;;;;20.17;7.75;;;0.30;99.90;;;;;;10011728;28;20375;-66
2022/12/19 03:30:25;;;;;;;28.15;10.50;;;0.40;99.90;;;;;;10021530;28;20406;-65
2022/12/19 03:35:22;;;;;;;31.73;10.07;;;0.40;99.90;;;;;;10020251;28;20026;-66
2022/12/19 03:40:17;;;;;;;;;;;0.40;99.90;;;;;;10022874;28;20056;-65
2022/12/19 03:45:10;;;;;;;19.52;8.60;;;0.40;99.90;;;;;;10021716;28;19947;-66
2022/12/19 03:50:01;;;;;;;28.05;10.07;;;0.40;99.90;;;;;;10014114;28;20029;-66
2022/12/19 03:54:58;;;;;;;28.33;9.00;;;0.40;99.90;;;;;;10020079;28;20018;-66
2022/12/19 03:59:59;;;;;;;24.80;10.45;;;0.40;99.90;;;;;;10019811;28;20030;-66
2022/12/19 04:04:54;;;;;;;23.90;8.80;;;0.50;99.90;;;;;;10014503;28;20386;-67
2022/12/19 04:09:46;;;;;;;21.75;9.02;;;0.60;99.90;;;;;;10010579;28;20038;-66
2022/12/19 04:14:38;;;;;;;21.45;10.68;;;0.60;99.90;;;;;;10014684;28;20504;-66
2022/12/19 04:19:45;;;;;;;25.85;10.18;;;0.60;99.90;;;;;;10016687;28;20038;-65
2022/12/19 04:24:39;;;;;;;28.98;10.38;;;0.60;99.90;;;;;;10019094;28;20113;-66
2022/12/19 04:29:34;;;;;;;30.55;9.88;;;0.60;99.90;;;;;;10018200;28;20034;-66
2022/12/19 04:34:24;;;;;;;17.13;8.00;;;0.40;99.90;;;;;;10019128;28;20033;-66
2022/12/19 04:39:15;;;;;;;30.80;10.80;;;0.00;99.90;;;;;;10018848;28;20045;-67
2022/12/19 04:44:06;;;;;;;30.50;9.38;;;0.00;99.90;;;;;;10018590;28;20065;-65
2022/12/19 04:48:57;;;;;;;26.90;9.98;;;-0.10;99.90;;;;;;10018942;28;20337;-67
2022/12/19 04:53:47;;;;;;;21.88;9.75;;;-0.10;99.90;;;;;;10028458;28;20026;-66
2022/12/19 04:58:39;;;;;;;24.75;9.90;;;0.00;99.90;;;;;;10024377;28;20033;-66
2022/12/19 05:03:30;;;;;;;30.23;10.15;;;0.00;99.90;;;;;;10017736;28;20505;-67
2022/12/19 05:08:21;;;;;;;25.20;9.93;;;0.00;99.90;;;;;;10016583;28;20105;-68
2022/12/19 05:13:11;;;;;;;22.48;9.70;;;0.10;99.90;;;;;;10010801;28;20092;-67
2022/12/19 05:18:02;;;;;;;33.15;12.15;;;0.20;99.90;;;;;;10017015;28;20189;-66
2022/12/19 05:22:53;;;;;;;27.33;10.02;;;0.30;99.90;;;;;;10017613;28;20065;-67
2022/12/19 05:27:44;;;;;;;21.92;9.45;;;0.20;99.90;;;;;;10018308;28;20060;-68
2022/12/19 05:32:34;;;;;;;23.60;9.90;;;0.30;99.90;;;;;;10016748;28;20026;-67
2022/12/19 05:37:25;;;;;;;23.92;9.32;;;0.30;99.90;;;;;;10017850;28;20157;-67
2022/12/19 05:42:16;;;;;;;21.40;9.88;;;0.10;99.90;;;;;;10016590;28;20125;-66
2022/12/19 05:47:07;;;;;;;27.38;10.93;;;0.20;99.90;;;;;;10016371;28;20022;-66
2022/12/19 05:51:57;;;;;;;20.50;9.55;;;0.30;99.90;;;;;;10016074;28;20025;-66
2022/12/19 05:56:48;;;;;;;22.35;8.80;;;0.30;99.90;;;;;;10012193;28;20057;-67
2022/12/19 06:01:39;;;;;;;24.52;9.77;;;0.40;99.90;;;;;;10012537;28;20045;-67
2022/12/19 06:06:30;;;;;;;29.17;10.52;;;0.50;99.90;;;;;;10003155;28;20533;-67
2022/12/19 06:11:21;;;;;;;24.73;9.25;;;0.50;99.90;;;;;;10010018;28;20033;-67
2022/12/19 06:16:17;;;;;;;23.33;10.05;;;0.40;99.90;;;;;;10015786;28;20536;-66
2022/12/19 06:21:13;;;;;;;;;;;0.40;99.90;;;;;;10015023;28;20278;-68
2022/12/19 06:26:07;;;;;;;21.55;7.93;;;0.50;99.90;;;;;;10016598;28;19929;-69
2022/12/19 06:31:00;;;;;;;24.42;10.30;;;0.40;99.90;;;;;;10016480;28;20032;-68
2022/12/19 06:36:09;;;;;;;24.58;10.13;;;0.50;99.90;;;;;;10013655;28;20022;-68
2022/12/19 06:46:11;;;;;;;31.15;10.07;;;0.60;99.90;;;;;;10024948;28;20080;-66
2022/12/19 06:51:02;;;;;;;28.05;10.68;;;0.70;99.90;;;;;;10025814;28;20136;-68
2022/12/19 06:55:56;;;;;;;21.80;9.73;;;0.70;99.90;;;;;;10026630;28;20083;-68
2022/12/19 07:00:46;;;;;;;30.08;11.18;;;0.80;99.90;;;;;;10026914;28;20421;-67
2022/12/19 07:05:38;;;;;;;20.83;9.43;;;0.80;99.90;;;;;;10025500;28;20188;-69
2022/12/19 07:10:29;;;;;;;26.60;10.70;;;0.80;99.90;;;;;;10022329;28;20022;-68
2022/12/19 07:15:19;;;;;;;25.52;10.68;;;0.90;99.90;;;;;;10023925;28;20050;-67
2022/12/19 07:20:12;;;;;;;22.30;10.32;;;0.70;99.90;;;;;;10017546;28;20512;-67
2022/12/19 07:25:04;;;;;;;20.75;9.88;;;0.60;99.90;;;;;;10022647;28;20033;-66
2022/12/19 07:29:55;;;;;;;24.00;11.10;;;0.50;99.90;;;;;;10022762;28;20038;-64
2022/12/19 07:34:46;;;;;;;26.33;10.77;;;0.60;99.90;;;;;;10022549;28;20490;-67
2022/12/19 07:39:36;;;;;;;36.00;11.73;;;0.70;99.90;;;;;;10022170;28;20512;-66
2022/12/19 07:44:27;;;;;;;28.75;12.98;;;0.70;99.90;;;;;;10022435;28;20108;-71
2022/12/19 07:49:18;;;;;;;30.67;11.63;;;0.60;99.90;;;;;;10020557;28;20022;-67
2022/12/19 07:54:08;;;;;;;38.38;12.88;;;0.70;99.90;;;;;;10019362;28;20026;-67
2022/12/19 07:58:59;;;;;;;34.15;13.23;;;0.80;99.90;;;;;;10020027;28;20155;-68
2022/12/19 08:03:50;;;;;;;26.65;12.52;;;0.90;99.90;;;;;;10018206;28;20083;-62
2022/12/19 08:08:40;;;;;;;32.80;13.13;;;1.20;99.90;;;;;;10021939;28;20029;-63
2022/12/19 08:13:31;;;;;;;32.08;11.43;;;1.20;99.90;;;;;;10016151;28;20106;-67
2022/12/19 08:18:22;;;;;;;32.08;13.05;;;1.40;99.90;;;;;;10020582;28;20507;-70
2022/12/19 08:23:13;;;;;;;34.88;15.30;;;1.50;99.90;;;;;;10020492;28;20045;-69
2022/12/19 08:28:03;;;;;;;35.88;13.07;;;1.60;99.90;;;;;;10016738;28;20022;-66
2022/12/19 08:32:54;;;;;;;28.27;12.38;;;1.80;99.90;;;;;;10017825;28;20037;-66
2022/12/19 08:37:45;;;;;;;27.10;12.82;;;1.80;99.90;;;;;;10018696;28;20560;-67
2022/12/19 08:42:36;;;;;;;34.58;13.82;;;1.70;99.90;;;;;;10015775;28;20052;-68
2022/12/19 08:47:27;;;;;;;36.40;16.92;;;1.90;99.90;;;;;;10018124;28;20025;-68
2022/12/19 08:52:17;;;;;;;41.80;14.68;;;2.10;99.90;;;;;;10019173;28;20022;-70
2022/12/19 08:57:08;;;;;;;27.75;13.90;;;2.10;99.90;;;;;;10019259;28;20064;-67
2022/12/19 09:02:00;;;;;;;30.85;15.00;;;2.30;99.90;;;;;;10017427;28;20029;-68
2022/12/19 09:06:51;;;;;;;36.15;13.40;;;2.40;99.90;;;;;;10019323;28;20476;-61
2022/12/19 09:11:42;;;;;;;30.20;13.23;;;2.60;99.90;;;;;;10013342;28;20029;-57
2022/12/19 09:16:33;;;;;;;37.40;15.25;;;2.70;99.90;;;;;;10018592;28;20034;-68
2022/12/19 09:21:25;;;;;;;30.42;14.02;;;2.80;99.90;;;;;;10015820;28;20285;-67
2022/12/19 09:26:16;;;;;;;34.70;14.85;;;2.90;99.90;;;;;;10014448;28;20018;-75
2022/12/19 09:31:12;;;;;;;34.03;15.07;;;3.00;99.90;;;;;;10017841;28;20514;-66
2022/12/19 09:36:04;;;;;;;32.67;13.55;;;2.90;99.90;;;;;;10018544;28;20040;-70
2022/12/19 09:41:01;;;;;;;36.65;15.25;;;3.00;99.90;;;;;;10016043;28;20061;-72
2022/12/19 09:46:14;;;;;;;40.92;16.58;;;3.10;99.90;;;;;;10017036;28;20026;-71
2022/12/19 09:51:25;;;;;;;30.60;14.25;;;3.20;99.90;;;;;;10018686;28;20449;-73
2022/12/19 09:56:17;;;;;;;32.97;14.43;;;3.40;99.90;;;;;;10015388;28;20061;-67
2022/12/19 10:01:23;;;;;;;30.98;13.25;;;3.60;99.90;;;;;;10016946;28;20034;-72
2022/12/19 10:06:18;;;;;;;35.78;15.32;;;3.70;99.90;;;;;;10014692;28;20457;-61
2022/12/19 10:11:17;;;;;;;25.48;11.43;;;3.80;99.90;;;;;;10015152;28;20022;-72
2022/12/19 10:16:18;;;;;;;28.55;11.32;;;3.80;99.90;;;;;;10028283;28;20432;-72
2022/12/19 10:21:34;;;;;;;25.45;11.65;;;3.80;99.90;;;;;;10025741;28;20042;-75
2022/12/19 10:26:52;;;;;;;27.03;12.37;;;4.00;99.90;;;;;;10024847;28;20313;-67
2022/12/19 10:32:11;;;;;;;31.55;14.68;;;4.10;99.90;;;;;;10022326;28;20436;-67
2022/12/19 10:37:21;;;;;;;31.77;15.25;;;4.30;99.90;;;;;;10019441;28;20022;-67
2022/12/19 10:42:41;;;;;;;35.67;14.27;;;4.40;99.90;;;;;;10023745;28;20038;-67
2022/12/19 10:47:32;;;;;;;27.23;13.90;;;4.50;99.90;;;;;;10011518;28;20026;-65
2022/12/19 10:52:54;;;;;;;32.80;14.73;;;4.60;99.90;;;;;;10019503;28;20091;-67
2022/12/19 10:57:44;;;;;;;29.58;15.10;;;4.80;99.90;;;;;;10023209;28;20102;-66
2022/12/19 11:02:38;;;;;;;26.65;12.48;;;4.90;99.90;;;;;;10019380;28;20132;-66
2022/12/19 11:07:29;;;;;;;26.33;11.80;;;5.10;99.90;;;;;;10022243;28;20511;-68
2022/12/19 11:12:19;;;;;;;25.67;11.95;;;5.00;99.90;;;;;;10023236;28;20026;-66
2022/12/19 11:17:33;;;;;;;24.98;10.90;;;5.10;99.90;;;;;;10019872;28;20064;-65
2022/12/19 11:22:32;;;;;;;31.63;11.95;;;5.10;99.90;;;;;;10020258;28;20532;-66
2022/12/19 11:27:31;;;;;;;24.55;10.95;;;5.20;99.90;;;;;;10010521;28;20029;-65
2022/12/19 11:32:29;;;;;;;27.20;10.77;;;5.40;99.90;;;;;;10026305;28;20713;-65
2022/12/19 11:37:40;;;;;;;21.88;11.35;;;5.40;99.90;;;;;;10014261;28;20025;-67
2022/12/19 11:42:43;;;;;;;17.90;9.65;;;5.50;99.90;;;;;;9999086;28;20038;-68
2022/12/19 11:47:45;;;;;;;23.27;9.63;;;5.70;99.90;;;;;;10013466;28;20109;-69
2022/12/19 11:52:40;;;;;;;20.90;9.57;;;5.80;99.90;;;;;;10018661;28;20033;-69
2022/12/19 11:57:31;;;;;;;18.83;9.83;;;5.80;99.90;;;;;;10008586;28;20132;-66
2022/12/19 12:02:54;;;;;;;20.48;10.60;;;6.10;99.90;;;;;;10016728;28;20073;-66
2022/12/19 12:07:52;;;;;;;23.08;10.13;;;6.20;99.90;;;;;;10015999;28;20140;-67
2022/12/19 12:12:55;;;;;;;21.48;12.65;;;6.20;99.90;;;;;;10013197;28;20053;-63
2022/12/19 12:18:04;;;;;;;17.58;9.52;;;6.30;99.90;;;;;;10017477;28;20050;-68
2022/12/19 12:22:55;;;;;;;22.50;10.50;;;6.20;99.90;;;;;;10012558;28;20124;-71
2022/12/19 12:28:23;;;;;;;18.25;10.57;;;6.30;99.90;;;;;;10015826;28;20113;-68
2022/12/19 12:33:28;;;;;;;22.60;10.07;;;6.20;99.90;;;;;;10026173;28;20112;-70
2022/12/19 12:38:19;;;;;;;19.85;9.48;;;6.20;99.90;;;;;;10016149;28;20036;-68
2022/12/19 12:43:33;;;;;;;21.15;9.85;;;6.00;99.90;;;;;;10008378;28;20460;-69
2022/12/19 12:48:34;;;;;;;21.05;9.25;;;6.00;99.90;;;;;;10019142;28;20064;-64
2022/12/19 12:53:31;;;;;;;21.55;9.02;;;6.00;99.90;;;;;;10017196;28;20068;-65
2022/12/19 12:58:41;;;;;;;15.82;8.77;;;6.00;99.90;;;;;;10018239;28;20223;-64
2022/12/19 13:03:33;;;;;;;22.90;9.48;;;6.00;99.90;;;;;;10018839;28;20049;-62
2022/12/19 13:08:24;;;;;;;21.13;10.30;;;5.90;99.90;;;;;;10013478;28;20041;-66
2022/12/19 13:13:15;;;;;;;21.60;10.88;;;6.00;99.90;;;;;;10018152;28;20034;-65
2022/12/19 13:18:33;;;;;;;18.95;10.95;;;6.20;99.90;;;;;;10018340;28;20128;-70
2022/12/19 13:23:35;;;;;;;19.42;10.32;;;6.30;99.90;;;;;;10001844;28;20088;-69
2022/12/19 13:28:27;;;;;;;18.63;9.30;;;6.30;99.90;;;;;;10017975;28;20026;-66
2022/12/19 13:33:18;;;;;;;21.58;9.82;;;6.30;99.90;;;;;;10017213;28;20026;-68
2022/12/19 13:38:21;;;;;;;17.75;9.77;;;6.30;99.90;;;;;;10017763;28;20044;-69
2022/12/19 13:43:46;;;;;;;19.77;11.90;;;6.20;99.90;;;;;;10018140;28;20038;-67
2022/12/19 13:48:44;;;;;;;22.40;9.38;;;6.20;99.90;;;;;;10012296;28;20397;-67
2022/12/19 13:53:36;;;;;;;19.98;8.80;;;6.20;99.90;;;;;;10013129;28;20574;-67
2022/12/19 13:58:30;;;;;;;25.58;11.88;;;6.00;99.90;;;;;;10017417;28;20022;-68
2022/12/19 14:03:36;;;;;;;21.15;10.07;;;6.20;99.90;;;;;;10009427;28;20414;-71
2022/12/19 14:08:28;;;;;;;18.92;9.02;;;6.20;99.90;;;;;;10025155;28;20024;-65
2022/12/19 14:18:32;;;;;;;19.23;10.82;;;6.10;99.90;;;;;;10015106;28;20184;-65
2022/12/19 14:23:23;;;;;;;21.08;10.10;;;6.00;99.90;;;;;;10016192;28;20026;-65
2022/12/19 14:28:18;;;;;;;22.75;11.10;;;5.90;99.90;;;;;;10016809;28;20475;-66
2022/12/19 14:33:21;;;;;;;19.52;9.35;;;5.80;99.90;;;;;;10011759;28;20042;-64
2022/12/19 14:38:20;;;;;;;21.95;9.90;;;5.80;99.90;;;;;;10016945;28;20046;-67
2022/12/19 14:48:46;;;;;;;20.08;9.80;;;5.60;99.90;;;;;;10009371;28;20493;-67
2022/12/19 14:53:39;;;;;;;19.75;9.70;;;5.50;99.90;;;;;;10015607;28;20064;-72
2022/12/19 14:58:34;;;;;;;24.95;10.85;;;5.40;99.90;;;;;;10015411;28;20026;-70
2022/12/19 15:03:29;;;;;;;21.08;11.00;;;5.30;99.90;;;;;;10034761;28;20484;-69
2022/12/19 15:08:31;;;;;;;23.60;10.40;;;5.30;99.90;;;;;;10023024;28;20037;-65
2022/12/19 15:13:27;;;;;;;20.75;11.82;;;5.20;99.90;;;;;;10017575;28;20023;-69
2022/12/19 15:18:21;;;;;;;20.40;10.00;;;5.10;99.90;;;;;;10021953;28;20046;-66
2022/12/19 15:23:12;;;;;;;18.17;9.35;;;5.10;99.90;;;;;;10021404;28;20034;-66
2022/12/19 15:28:10;;;;;;;18.90;9.98;;;5.00;99.90;;;;;;10016300;28;20496;-64
2022/12/19 15:33:01;;;;;;;27.85;11.27;;;5.00;99.90;;;;;;10019640;28;20029;-66
2022/12/19 15:37:52;;;;;;;22.02;10.30;;;4.90;99.90;;;;;;10021029;28;20034;-65
2022/12/19 15:42:46;;;;;;;30.92;11.30;;;4.90;99.90;;;;;;10019188;28;20374;-67
2022/12/19 15:47:37;;;;;;;26.70;11.38;;;4.80;99.90;;;;;;10018145;28;20033;-66
2022/12/19 15:52:28;;;;;;;27.50;11.48;;;4.80;99.90;;;;;;10025914;28;20030;-68
2022/12/19 15:57:29;;;;;;;22.35;11.30;;;4.80;99.90;;;;;;10019533;28;20305;-69
2022/12/19 16:02:25;;;;;;;22.27;12.90;;;4.70;99.90;;;;;;10035230;28;20081;-69
2022/12/19 16:07:17;;;;;;;23.40;11.03;;;4.70;99.90;;;;;;10020848;28;20518;-69
2022/12/19 16:12:17;;;;;;;29.13;13.75;;;4.80;99.90;;;;;;10017108;28;20088;-68
2022/12/19 16:17:17;;;;;;;27.60;14.50;;;4.80;99.90;;;;;;10019215;28;20057;-71
2022/12/19 16:22:26;;;;;;;30.02;14.13;;;4.90;99.90;;;;;;10020761;28;20046;-70
2022/12/19 16:27:25;;;;;;;38.78;17.15;;;4.80;99.90;;;;;;10015016;28;20057;-65
2022/12/19 16:32:16;;;;;;;28.35;14.55;;;4.70;99.90;;;;;;10019210;28;20526;-66
2022/12/19 16:37:07;;;;;;;35.28;19.88;;;4.50;99.90;;;;;;10019608;28;20121;-68
2022/12/19 16:41:58;;;;;;;37.25;19.23;;;4.30;99.90;;;;;;10014699;28;20056;-62
2022/12/19 16:46:49;;;;;;;40.60;19.90;;;4.20;99.90;;;;;;10013505;28;20018;-64
2022/12/19 16:51:41;;;;;;;41.92;18.55;;;3.90;99.90;;;;;;10014509;28;20470;-60
2022/12/19 16:56:41;;;;;;;42.17;19.13;;;3.90;99.90;;;;;;10018843;28;20032;-70
2022/12/19 17:01:31;;;;;;;44.20;20.95;;;3.80;99.90;;;;;;10018371;28;20381;-63
2022/12/19 17:06:22;;;;;;;40.47;19.55;;;3.80;99.90;;;;;;10018479;28;20109;-64
2022/12/19 17:11:22;;;;;;;38.67;19.38;;;3.80;99.90;;;;;;10017882;28;20072;-59
2022/12/19 17:16:12;;;;;;;45.22;20.83;;;3.80;99.90;;;;;;10018582;28;20053;-63
2022/12/19 17:21:03;;;;;;;47.15;21.25;;;3.80;99.90;;;;;;10013105;28;20463;-63
2022/12/19 17:25:54;;;;;;;48.40;23.33;;;3.80;99.90;;;;;;10018080;28;20052;-64
2022/12/19 17:30:50;;;;;;;43.22;21.20;;;3.90;99.90;;;;;;10017013;28;20041;-65
2022/12/19 17:35:41;;;;;;;44.45;20.40;;;3.90;99.90;;;;;;10009510;28;20026;-64
2022/12/19 17:40:33;;;;;;;44.78;21.08;;;3.80;99.90;;;;;;10005221;28;20502;-65
2022/12/19 17:45:26;;;;;;;46.83;22.52;;;3.90;99.90;;;;;;10001042;28;20264;-65
2022/12/19 17:50:27;;;;;;;43.97;20.05;;;3.90;99.90;;;;;;10003563;28;20554;-66
2022/12/19 17:55:21;;;;;;;51.65;20.00;;;3.90;99.90;;;;;;10004876;28;20045;-66
2022/12/19 18:00:12;;;;;;;32.42;18.77;;;3.90;99.90;;;;;;10011584;28;20117;-65
2022/12/19 18:05:04;;;;;;;41.08;19.13;;;3.90;99.90;;;;;;10006227;28;20057;-66
2022/12/19 18:09:55;;;;;;;39.88;19.90;;;3.80;99.90;;;;;;10007671;28;20117;-65
2022/12/19 18:14:45;;;;;;;42.97;19.25;;;3.90;99.90;;;;;;10006467;28;20136;-66
2022/12/19 18:19:36;;;;;;;36.55;17.98;;;3.80;99.90;;;;;;9998428;28;20243;-63
2022/12/19 18:24:26;;;;;;;37.88;18.15;;;3.90;99.90;;;;;;10003929;28;20030;-66
2022/12/19 18:29:17;;;;;;;41.33;19.17;;;4.00;99.90;;;;;;10005664;28;20038;-63
2022/12/19 18:34:20;;;;;;;37.58;21.23;;;4.00;99.90;;;;;;10012673;28;20033;-67
2022/12/19 18:39:23;;;;;;;43.63;19.70;;;4.10;99.90;;;;;;10008667;28;20018;-70
2022/12/19 18:44:13;;;;;;;38.38;19.17;;;4.20;99.90;;;;;;9994571;28;20065;-66
2022/12/19 18:49:05;;;;;;;44.00;19.25;;;4.20;99.90;;;;;;10014335;28;20409;-69
2022/12/19 18:53:56;;;;;;;34.58;17.02;;;4.20;99.90;;;;;;10019131;28;20029;-69
2022/12/19 18:58:47;;;;;;;35.65;16.25;;;4.20;99.90;;;;;;10013259;28;20030;-68
2022/12/19 19:03:39;;;;;;;30.75;14.88;;;4.40;99.90;;;;;;10006604;28;20042;-66
2022/12/19 19:08:33;;;;;;;23.38;12.82;;;4.60;99.90;;;;;;10016922;28;20073;-68
2022/12/19 19:13:25;;;;;;;21.27;11.20;;;4.80;99.90;;;;;;10007809;28;20026;-68
2022/12/19 19:18:20;;;;;;;18.52;10.02;;;5.10;99.90;;;;;;9971370;28;1111878;-68
2022/12/19 19:23:12;;;;;;;18.30;8.93;;;5.40;99.90;;;;;;10011371;28;20045;-67
2022/12/19 19:28:04;;;;;;;17.33;7.25;;;5.60;99.90;;;;;;10011368;28;20444;-68
2022/12/19 19:33:03;;;;;;;13.35;7.65;;;5.80;99.90;;;;;;10018982;28;20018;-66
2022/12/19 19:37:59;;;;;;;15.98;7.53;;;6.00;99.90;;;;;;10014221;28;20038;-69
2022/12/19 19:42:50;;;;;;;13.18;6.70;;;6.10;99.90;;;;;;10006564;28;20042;-66
2022/12/19 19:47:41;;;;;;;15.57;7.63;;;6.20;99.90;;;;;;10009016;28;20038;-63
2022/12/19 19:52:32;;;;;;;252.60;112.10;;;6.30;99.90;;;;;;10013334;28;20160;-62
2022/12/19 19:57:23;;;;;;;43.53;23.98;;;6.50;99.90;;;;;;10015366;28;20046;-66
2022/12/19 20:02:14;;;;;;;18.80;9.95;;;6.50;99.90;;;;;;10019075;28;20038;-65
2022/12/19 20:07:05;;;;;;;17.40;8.73;;;6.30;99.90;;;;;;10011490;28;20176;-64
2022/12/19 20:11:56;;;;;;;17.58;7.90;;;6.30;99.90;;;;;;10016315;28;20030;-65
2022/12/19 20:16:47;;;;;;;15.38;8.07;;;6.20;99.90;;;;;;10020679;28;20197;-66
2022/12/19 20:21:38;;;;;;;16.70;8.40;;;6.20;99.90;;;;;;10018890;28;20499;-65
2022/12/19 20:26:29;;;;;;;17.58;8.25;;;6.10;99.90;;;;;;10018426;28;20045;-66
2022/12/19 20:31:22;;;;;;;17.38;8.18;;;6.20;99.90;;;;;;10019753;28;20064;-66
2022/12/19 20:36:13;;;;;;;16.38;7.68;;;6.00;99.90;;;;;;10018836;28;20242;-65
2022/12/19 20:41:03;;;;;;;18.30;8.60;;;6.00;99.90;;;;;;10017689;28;20681;-65
2022/12/19 20:46:11;;;;;;;18.67;9.13;;;5.90;99.90;;;;;;10013851;28;20022;-65
2022/12/19 20:51:03;;;;;;;22.33;12.13;;;5.80;99.90;;;;;;10015254;28;20041;-65
2022/12/19 20:55:57;;;;;;;25.65;12.38;;;5.80;99.90;;;;;;10019294;28;20034;-65
2022/12/19 21:00:48;;;;;;;26.08;11.60;;;5.70;99.90;;;;;;10018673;28;20046;-66
2022/12/19 21:05:39;;;;;;;19.88;11.25;;;5.70;99.90;;;;;;9998401;28;20026;-66
2022/12/19 21:10:30;;;;;;;26.73;11.75;;;5.60;99.90;;;;;;10012317;28;20128;-66
2022/12/19 21:15:20;;;;;;;25.60;13.30;;;5.60;99.90;;;;;;10014338;28;20164;-64
2022/12/19 21:20:13;;;;;;;30.98;15.40;;;5.60;99.90;;;;;;10016866;28;20137;-66
2022/12/19 21:25:04;;;;;;;23.48;13.07;;;5.50;99.90;;;;;;10016716;28;20535;-66
2022/12/19 21:29:55;;;;;;;25.80;13.75;;;5.40;99.90;;;;;;10017098;28;20026;-64
2022/12/19 21:34:45;;;;;;;25.25;13.07;;;5.50;99.90;;;;;;10016678;28;20022;-67
2022/12/19 21:39:36;;;;;;;29.35;14.32;;;5.50;99.90;;;;;;10016958;28;20592;-65
2022/12/19 21:44:27;;;;;;;30.75;14.35;;;5.50;99.90;;;;;;10015887;28;20040;-66
2022/12/19 21:49:18;;;;;;;32.55;13.93;;;5.30;99.90;;;;;;10015225;28;20416;-64
2022/12/19 21:54:08;;;;;;;31.73;15.25;;;5.30;99.90;;;;;;10017091;28;20272;-66
2022/12/19 21:59:03;;;;;;;34.10;17.85;;;5.20;99.90;;;;;;10016138;28;20041;-66
2022/12/19 22:03:58;;;;;;;33.13;17.05;;;5.20;99.90;;;;;;10017150;28;20222;-65
2022/12/19 22:08:49;;;;;;;33.00;15.10;;;5.20;99.90;;;;;;10015466;28;20034;-65
2022/12/19 22:13:40;;;;;;;27.83;13.38;;;5.30;99.90;;;;;;10016315;28;20038;-64
2022/12/19 22:18:33;;;;;;;27.90;14.00;;;5.20;99.90;;;;;;10012582;28;20035;-66
2022/12/19 22:23:25;;;;;;;22.88;10.52;;;5.20;99.90;;;;;;10014553;28;20045;-64
2022/12/19 22:28:15;;;;;;;18.60;9.60;;;5.30;99.90;;;;;;10015065;28;20404;-66
2022/12/19 22:33:06;;;;;;;16.38;9.00;;;5.30;99.90;;;;;;10012495;28;20053;-65
2022/12/19 22:37:57;;;;;;;19.80;9.55;;;5.30;99.90;;;;;;10016109;28;20096;-66
2022/12/19 22:42:47;;;;;;;14.57;8.32;;;5.40;99.90;;;;;;10012280;28;20570;-65
2022/12/19 22:47:41;;;;;;;18.35;8.85;;;5.50;99.90;;;;;;10015996;28;20030;-66
2022/12/19 22:52:32;;;;;;;14.85;8.10;;;5.50;99.90;;;;;;10015555;28;20028;-65
2022/12/19 22:57:23;;;;;;;17.05;8.02;;;5.60;99.90;;;;;;10015857;28;20105;-66
2022/12/19 23:02:13;;;;;;;13.85;8.32;;;5.60;99.90;;;;;;10015684;28;20034;-66
2022/12/19 23:07:04;;;;;;;23.42;9.20;;;5.60;99.90;;;;;;10015563;28;20057;-66
2022/12/19 23:11:54;;;;;;;19.10;8.73;;;5.70;99.90;;;;;;10006697;28;20034;-65
2022/12/19 23:16:45;;;;;;;19.48;8.85;;;5.70;99.90;;;;;;10015062;28;20057;-67
2022/12/19 23:21:36;;;;;;;18.23;8.40;;;5.80;99.90;;;;;;10018280;28;20057;-65
2022/12/19 23:26:30;;;;;;;13.90;7.15;;;5.70;99.90;;;;;;10022240;28;20025;-67
2022/12/19 23:31:21;;;;;;;18.98;10.60;;;5.70;99.90;;;;;;10021591;28;20575;-64
2022/12/19 23:36:12;;;;;;;12.48;7.88;;;5.80;99.90;;;;;;10021731;28;20037;-65
2022/12/19 23:41:06;;;;;;;15.73;7.50;;;5.80;99.90;;;;;;10018547;28;20057;-66
2022/12/19 23:45:56;;;;;;;12.88;7.30;;;5.80;99.90;;;;;;10012543;28;20025;-66
2022/12/19 23:51:02;;;;;;;16.30;7.38;;;5.90;99.90;;;;;;10021529;28;20033;-65
2022/12/19 23:55:53;;;;;;;13.27;6.78;;;5.90;99.90;;;;;;10012990;28;20033;-66
